Time;durP1;ratioP1;P1;durP2;ratioP2;P2;SDS_P1;SDS_P2;PMS_P1;PMS_P2;Temp;Humidity;BMP_temperature;BMP_pressure;BME280_temperature;BME280_humidity;BME280_pressure;Samples;Min_cycle;Max_cycle;Signal;HPM_P1;HPM_P2
2022/06/26 00:01:01;;;;;;;19.73;15.93;;;;;;;16.54;100.00;164890.66;5011997;28;20045;-61
2022/06/26 00:03:27;;;;;;;15.02;13.60;;;;;;;16.61;100.00;164909.63;5010243;28;20025;-61
2022/06/26 00:05:53;;;;;;;16.40;14.73;;;;;;;16.63;100.00;164916.41;5011811;28;20390;-61
2022/06/26 00:08:18;;;;;;;12.52;11.55;;;;;;;16.61;100.00;164909.63;5013559;28;20072;-61
2022/06/26 00:10:46;;;;;;;15.90;12.98;;;;;;;16.61;100.00;164910.97;4994224;28;20050;-61
2022/06/26 00:13:11;;;;;;;21.67;16.80;;;;;;;16.60;100.00;164906.91;4993522;28;20108;-61
2022/06/26 00:15:37;;;;;;;18.95;14.30;;;;;;;16.76;100.00;164948.91;4992436;28;20524;-61
2022/06/26 00:18:02;;;;;;;20.35;18.20;;;;;;;16.91;100.00;164988.22;4993228;28;20027;-61
2022/06/26 00:20:29;;;;;;;19.15;17.35;;;;;;;17.08;100.00;165034.34;4992077;28;20101;-61
2022/06/26 00:22:54;;;;;;;20.20;18.27;;;;;;;17.27;100.00;165084.50;4993562;28;20034;-62
2022/06/26 00:25:19;;;;;;;21.00;18.98;;;;;;;17.55;100.00;165156.28;4991988;28;20049;-61
2022/06/26 00:27:46;;;;;;;23.13;20.55;;;;;;;17.65;100.00;165183.41;4992867;28;20046;-62
2022/06/26 00:30:13;;;;;;;22.17;20.02;;;;;;;17.75;100.00;165210.53;5008939;28;20042;-62
2022/06/26 00:32:38;;;;;;;22.83;19.33;;;;;;;17.83;100.00;165229.50;5001082;28;20054;-61
2022/06/26 00:35:04;;;;;;;23.50;21.20;;;;;;;17.99;100.00;165272.91;4991360;28;20049;-61
2022/06/26 00:37:29;;;;;;;22.27;20.23;;;;;;;18.02;100.00;165281.06;5000459;28;20061;-62
2022/06/26 00:39:55;;;;;;;21.77;19.70;;;;;;;18.00;100.00;165275.59;5011395;28;20037;-62
2022/06/26 00:42:20;;;;;;;28.00;25.02;;;;;;;17.98;100.00;165268.84;5006097;28;20053;-61
2022/06/26 00:44:46;;;;;;;25.85;22.95;;;;;;;18.04;100.00;165286.50;4992081;28;20393;-62
2022/06/26 00:47:11;;;;;;;22.17;19.98;;;;;;;18.14;100.00;165312.22;4992852;28;20093;-61
2022/06/26 00:49:36;;;;;;;38.25;24.38;;;;;;;18.19;100.00;165324.44;4992940;28;20069;-62
2022/06/26 00:52:02;;;;;;;25.80;21.77;;;;;;;18.20;100.00;165327.16;4991001;28;20480;-62
2022/06/26 00:54:28;;;;;;;30.05;22.13;;;;;;;18.15;100.00;165313.56;4993008;28;20435;-62
2022/06/26 00:56:58;;;;;;;27.55;24.30;;;;;;;18.07;100.00;165294.59;4990862;28;20509;-61
2022/06/26 00:59:27;;;;;;;29.15;22.13;;;;;;;18.05;100.00;165289.22;4993062;28;20057;-61
2022/06/26 01:01:53;;;;;;;65.07;30.02;;;;;;;17.97;100.00;165267.50;4994940;28;20188;-61
2022/06/26 01:04:18;;;;;;;33.50;25.45;;;;;;;17.87;100.00;165240.31;4992467;28;20385;-61
2022/06/26 01:06:43;;;;;;;35.92;24.67;;;;;;;17.77;100.00;163149.66;4992325;28;20053;-61
2022/06/26 01:09:12;;;;;;;31.15;25.80;;;;;;;17.60;100.00;158025.88;4992338;28;20029;-61
2022/06/26 01:11:38;;;;;;;35.67;27.63;;;;;;;17.56;100.00;153733.56;4990867;28;20050;-61
2022/06/26 01:14:04;;;;;;;30.13;25.02;;;;;;;17.49;100.00;145522.22;4992339;28;20459;-61
2022/06/26 01:16:29;;;;;;;27.85;24.08;;;;;;;17.47;100.00;139116.47;4991127;28;20578;-61
2022/06/26 01:18:56;;;;;;;32.47;26.92;;;;;;;17.42;100.00;135200.84;4991802;28;20029;-61
2022/06/26 01:21:23;;;;;;;33.15;27.00;;;;;;;17.42;100.00;130588.75;4990998;28;20049;-61
2022/06/26 01:23:49;;;;;;;34.55;28.30;;;;;;;17.38;100.00;124911.31;4996028;28;20088;-61
2022/06/26 01:26:15;;;;;;;33.10;26.95;;;;;;;17.38;100.00;121018.44;4990082;28;20058;-61
2022/06/26 01:28:41;;;;;;;33.53;28.65;;;;;;;17.37;100.00;118541.16;4992264;28;20030;-61
2022/06/26 01:31:06;;;;;;;31.70;27.42;;;;;;;17.36;100.00;116418.75;4990728;28;20230;-61
2022/06/26 01:33:33;;;;;;;32.88;28.40;;;;;;;17.35;100.00;115356.13;4991668;28;20037;-61
2022/06/26 01:35:58;;;;;;;34.25;29.08;;;;;;;17.37;100.00;114654.41;4996954;28;20048;-61
2022/06/26 01:38:24;;;;;;;31.15;26.45;;;;;;;17.38;100.00;113596.84;5011317;28;20029;-61
2022/06/26 01:40:54;;;;;;;33.47;28.13;;;;;;;17.37;100.00;113595.00;5009692;28;20037;-61
2022/06/26 01:43:29;;;;;;;35.92;26.35;;;;;;;17.40;100.00;113247.44;5004572;28;20050;-62
2022/06/26 01:45:56;;;;;;;34.63;27.42;;;;;;;17.42;100.00;112898.06;4990147;28;20498;-62
2022/06/26 01:48:24;;;;;;;33.67;27.15;;;;;;;17.38;100.00;112890.75;4991356;28;20026;-62
2022/06/26 01:50:50;;;;;;;30.27;25.95;;;;;;;17.40;100.00;113247.44;5004403;28;20124;-61
2022/06/26 01:53:16;;;;;;;28.83;24.10;;;;;;;17.39;100.00;113951.78;5011013;28;20029;-62
2022/06/26 01:55:42;;;;;;;40.70;28.65;;;;;;;17.39;100.00;113598.69;5009546;28;20066;-62
2022/06/26 01:58:08;;;;;;;35.78;26.73;;;;;;;17.37;100.00;112182.00;4991215;28;20134;-62
2022/06/26 02:00:37;;;;;;;32.20;24.50;;;;;;;17.33;100.00;112175.63;4990277;28;20127;-62
2022/06/26 02:03:03;;;;;;;29.38;24.55;;;;;;;17.28;100.00;112519.47;4991016;28;20034;-62
2022/06/26 02:05:29;;;;;;;27.35;24.13;;;;;;;17.32;100.00;111820.91;4989806;28;20043;-63
2022/06/26 02:07:54;;;;;;;34.90;25.83;;;;;;;17.33;100.00;111116.97;4991164;28;20045;-62
2022/06/26 02:15:50;;;;;;;29.55;24.17;;;;;;;17.22;100.00;117098.84;5008079;28;20608;-61
2022/06/26 02:18:15;;;;;;;25.50;22.73;;;;;;;17.15;100.00;118852.19;5010281;28;20117;-61
2022/06/26 02:20:41;;;;;;;28.95;24.73;;;;;;;17.12;100.00;119908.66;5008822;28;20041;-60
2022/06/26 02:23:06;;;;;;;33.28;27.35;;;;;;;17.05;100.00;120248.47;5010301;28;20033;-60
2022/06/26 02:25:32;;;;;;;35.83;26.85;;;;;;;17.06;100.00;122018.25;4999912;28;20050;-61
2022/06/26 02:27:57;;;;;;;33.35;28.38;;;;;;;17.00;100.00;122359.97;4996944;28;21561;-63
2022/06/26 02:30:23;;;;;;;30.38;27.15;;;;;;;16.99;100.00;121650.78;4989643;28;20053;-62
2022/06/26 02:32:48;;;;;;;41.03;29.75;;;;;;;17.06;100.00;121310.00;4990772;28;20532;-62
2022/06/26 02:35:13;;;;;;;42.00;29.52;;;;;;;17.06;100.00;121310.00;4989332;28;20042;-63
2022/06/26 02:37:39;;;;;;;33.47;29.15;;;;;;;17.06;100.00;121664.63;4990961;28;20030;-63
2022/06/26 02:40:05;;;;;;;38.15;30.02;;;;;;;17.03;100.00;121304.13;4989206;28;20041;-63
2022/06/26 02:42:31;;;;;;;36.33;29.38;;;;;;;17.00;100.00;121652.75;4994913;28;20029;-62
2022/06/26 02:44:56;;;;;;;36.22;27.25;;;;;;;16.94;100.00;122701.63;5008852;28;20428;-63
2022/06/26 02:47:21;;;;;;;38.97;26.48;;;;;;;16.96;100.00;125536.72;4996700;28;20030;-63
2022/06/26 02:49:47;;;;;;;35.42;28.90;;;;;;;16.93;100.00;129778.13;5009293;28;20018;-63
2022/06/26 02:52:12;;;;;;;45.45;30.45;;;;;;;16.89;100.00;131895.41;5010038;28;20037;-63
2022/06/26 02:54:37;;;;;;;32.92;25.20;;;;;;;16.83;100.00;133654.66;5008167;28;20034;-62
2022/06/26 02:57:03;;;;;;;38.47;28.23;;;;;;;16.74;100.00;134346.19;4990627;28;20057;-62
2022/06/26 02:59:28;;;;;;;33.05;29.55;;;;;;;16.73;100.00;134698.53;4990971;28;20491;-62
2022/06/26 03:01:54;;;;;;;38.40;30.27;;;;;;;16.71;100.00;137886.19;5001194;28;20038;-62
2022/06/26 03:04:19;;;;;;;37.20;28.90;;;;;;;16.67;100.00;141071.44;5010622;28;20026;-61
2022/06/26 03:06:44;;;;;;;31.95;27.33;;;;;;;16.62;100.00;142480.28;5009040;28;20092;-61
2022/06/26 03:09:10;;;;;;;44.97;24.50;;;;;;;16.57;100.00;142823.75;4995466;28;20117;-61
2022/06/26 03:11:35;;;;;;;33.60;24.95;;;;;;;16.51;100.00;145297.47;4989563;28;20058;-61
2022/06/26 03:14:00;;;;;;;28.27;24.25;;;;;;;16.46;100.00;146351.59;5005556;28;20025;-61
2022/06/26 03:16:26;;;;;;;43.28;24.55;;;;;;;16.41;100.00;145985.50;5007746;28;20046;-61
2022/06/26 03:18:51;;;;;;;39.55;22.58;;;;;;;16.39;100.00;146691.41;5007064;28;20026;-61
2022/06/26 03:21:17;;;;;;;225.27;29.85;;;;;;;16.31;100.00;146672.19;4989102;28;20493;-61
2022/06/26 03:26:30;;;;;;;24.70;19.05;;;;;;;16.13;100.00;146276.16;4989243;28;20473;-63
2022/06/26 03:28:56;;;;;;;179.20;21.77;;;;;;;16.10;100.00;144137.22;4991570;28;20488;-62
2022/06/26 03:31:22;;;;;;;125.30;18.02;;;;;;;16.07;100.00;144130.19;5003097;28;20049;-62
2022/06/26 03:33:47;;;;;;;31.67;13.00;;;;;;;15.95;100.00;144812.94;4997079;28;20034;-61
2022/06/26 03:36:13;;;;;;;23.98;15.60;;;;;;;15.91;100.00;142674.28;5002443;28;20097;-61
2022/06/26 03:38:38;;;;;;;25.45;17.50;;;;;;;15.90;100.00;140545.09;5012645;28;20493;-61
2022/06/26 03:41:04;;;;;;;23.10;15.05;;;;;;;15.84;100.00;138760.09;5011566;28;20053;-61
2022/06/26 03:43:30;;;;;;;20.67;16.70;;;;;;;15.82;100.00;137338.22;5008404;28;20087;-61
2022/06/26 03:45:55;;;;;;;28.48;21.40;;;;;;;15.82;100.00;134505.09;4992325;28;20418;-61
2022/06/26 03:48:20;;;;;;;22.48;19.50;;;;;;;15.84;100.00;130617.03;4994099;28;20037;-61
2022/06/26 03:50:46;;;;;;;26.60;20.50;;;;;;;15.82;100.00;128844.69;4992811;28;20042;-61
2022/06/26 03:53:11;;;;;;;25.95;20.95;;;;;;;15.86;100.00;127792.63;4994020;28;20419;-61
2022/06/26 03:55:37;;;;;;;27.38;24.15;;;;;;;15.97;100.00;126046.25;4993555;28;20046;-61
2022/06/26 03:58:03;;;;;;;36.28;27.75;;;;;;;16.08;100.00;124302.00;4996621;28;20452;-61
2022/06/26 04:00:28;;;;;;;43.20;31.17;;;;;;;16.23;100.00;122563.91;4997891;28;20050;-63
2022/06/26 04:02:54;;;;;;;48.28;33.08;;;;;;;16.36;100.00;121176.91;4995640;28;20030;-63
2022/06/26 04:05:19;;;;;;;46.13;32.67;;;;;;;16.48;100.00;119787.84;5012149;28;20132;-63
2022/06/26 04:07:44;;;;;;;46.08;33.78;;;;;;;16.56;100.00;119095.22;4995657;28;20457;-63
2022/06/26 04:10:11;;;;;;;47.10;32.83;;;;;;;16.59;100.00;119101.00;5001283;28;20103;-62
2022/06/26 04:12:37;;;;;;;45.10;32.58;;;;;;;16.65;100.00;120525.47;5000414;28;20069;-60
2022/06/26 04:15:03;;;;;;;44.78;33.65;;;;;;;16.69;100.00;121240.00;5007073;28;20053;-60
2022/06/26 04:17:28;;;;;;;45.42;32.78;;;;;;;16.71;100.00;122304.22;4998553;28;20433;-61
2022/06/26 04:19:53;;;;;;;36.78;30.35;;;;;;;16.76;100.00;122666.63;4991945;28;20026;-61
2022/06/26 04:22:19;;;;;;;42.85;32.20;;;;;;;16.80;100.00;122322.09;4996537;28;20392;-61
2022/06/26 04:24:44;;;;;;;38.30;33.20;;;;;;;16.83;100.00;122679.63;5001477;28;20049;-61
2022/06/26 04:27:10;;;;;;;39.70;31.83;;;;;;;16.89;100.00;122338.00;4993631;28;20046;-60
2022/06/26 04:29:35;;;;;;;37.10;29.77;;;;;;;16.98;100.00;121648.78;5007711;28;20077;-61
2022/06/26 04:32:00;;;;;;;36.70;29.10;;;;;;;17.03;100.00;122365.91;5010986;28;20096;-61
2022/06/26 04:34:26;;;;;;;38.22;32.40;;;;;;;17.03;100.00;124841.19;5012659;28;20121;-60
2022/06/26 04:36:51;;;;;;;39.97;31.85;;;;;;;17.01;100.00;127315.88;5001988;28;20144;-61
2022/06/26 04:39:17;;;;;;;39.63;31.27;;;;;;;17.02;100.00;128734.44;4992690;28;20038;-61
2022/06/26 04:41:42;;;;;;;43.55;32.95;;;;;;;17.06;100.00;128034.47;4991807;28;20042;-60
2022/06/26 04:44:12;;;;;;;37.45;32.47;;;;;;;17.19;100.00;124518.75;4992207;28;20077;-61
2022/06/26 04:46:39;;;;;;;41.47;33.92;;;;;;;17.29;100.00;124539.00;4992014;28;20048;-61
2022/06/26 04:49:05;;;;;;;41.17;31.10;;;;;;;17.30;100.00;127728.16;4992703;28;20030;-61
2022/06/26 04:51:30;;;;;;;35.85;29.80;;;;;;;17.44;100.00;127402.94;4994967;28;20511;-60
2022/06/26 04:53:56;;;;;;;46.53;34.80;;;;;;;17.44;100.00;128111.63;4997036;28;20026;-60
2022/06/26 04:56:21;;;;;;;38.42;31.90;;;;;;;17.60;100.00;132043.88;4997881;28;20057;-59
2022/06/26 04:58:47;;;;;;;38.70;31.70;;;;;;;17.64;100.00;137732.50;4992455;28;20033;-59
2022/06/26 05:01:13;;;;;;;43.83;35.65;;;;;;;17.56;100.00;143403.78;5008389;28;20049;-59
2022/06/26 05:03:38;;;;;;;37.78;31.77;;;;;;;17.57;100.00;146965.28;4995567;28;20030;-59
2022/06/26 05:06:04;;;;;;;36.05;32.22;;;;;;;17.58;100.00;148749.66;5002416;28;20047;-59
2022/06/26 05:08:29;;;;;;;36.08;30.52;;;;;;;17.63;100.00;150541.06;5008867;28;20025;-60
2022/06/26 05:10:54;;;;;;;39.55;35.45;;;;;;;17.71;100.00;151273.75;5008841;28;20045;-59
2022/06/26 05:13:20;;;;;;;36.50;33.05;;;;;;;17.75;100.00;156279.47;5010426;28;20458;-59
2022/06/26 05:15:46;;;;;;;39.65;35.35;;;;;;;17.79;100.00;162184.41;4996018;28;20038;-60
2022/06/26 05:18:12;;;;;;;33.78;30.20;;;;;;;17.81;100.00;165224.06;5009660;28;20390;-59
2022/06/26 05:20:37;;;;;;;33.67;29.42;;;;;;;17.92;100.00;165255.25;5009922;28;20046;-59
2022/06/26 05:23:03;;;;;;;43.65;32.13;;;;;;;17.98;100.00;165270.22;4993179;28;20030;-59
2022/06/26 05:25:28;;;;;;;35.78;31.80;;;;;;;17.97;100.00;165266.13;5001868;28;20050;-59
2022/06/26 05:27:53;;;;;;;36.00;30.52;;;;;;;18.06;100.00;165291.88;4995742;28;20029;-59
2022/06/26 05:30:19;;;;;;;36.90;30.70;;;;;;;18.12;100.00;165305.47;5008634;28;20351;-59
2022/06/26 05:32:45;;;;;;;31.45;28.25;;;;;;;18.19;100.00;165324.44;5009222;28;20056;-59
2022/06/26 05:35:10;;;;;;;31.77;28.55;;;;;;;18.16;100.00;165317.69;5009288;28;20477;-59
2022/06/26 05:37:36;;;;;;;31.20;27.88;;;;;;;18.20;100.00;165327.16;5009579;28;20041;-59
2022/06/26 05:40:01;;;;;;;28.83;25.80;;;;;;;18.21;100.00;165329.84;5009575;28;20041;-59
2022/06/26 05:42:26;;;;;;;35.90;26.88;;;;;;;18.08;100.00;165297.31;5009679;28;20029;-58
2022/06/26 05:44:52;;;;;;;30.05;27.00;;;;;;;18.30;100.00;165352.91;5006407;28;20596;-59
2022/06/26 05:47:17;;;;;;;31.42;27.17;;;;;;;18.48;100.00;165400.38;5011253;28;20014;-59
2022/06/26 05:49:42;;;;;;;26.30;23.75;;;;;;;18.60;100.00;165431.56;5008849;28;20033;-58
2022/06/26 05:52:08;;;;;;;24.52;22.10;;;;;;;18.53;100.00;165415.31;5009461;28;20064;-58
2022/06/26 05:54:33;;;;;;;25.83;21.90;;;;;;;18.54;100.00;165417.97;5003286;28;20478;-58
2022/06/26 05:56:58;;;;;;;21.25;19.05;;;;;;;18.36;100.00;165370.50;4988970;28;20042;-59
2022/06/26 05:59:24;;;;;;;24.50;21.95;;;;;;;18.20;100.00;165327.16;4997609;28;20033;-59
2022/06/26 06:01:49;;;;;;;22.77;20.48;;;;;;;17.99;100.00;165272.91;5009271;28;20038;-58
2022/06/26 06:04:15;;;;;;;25.30;20.42;;;;;;;17.98;100.00;165268.84;5010030;28;20381;-59
2022/06/26 06:06:40;;;;;;;23.88;21.38;;;;;;;17.85;100.00;165236.28;5006737;28;20881;-59
2022/06/26 06:09:05;;;;;;;22.75;20.25;;;;;;;17.80;100.00;165221.34;5001668;28;20026;-59
2022/06/26 06:11:31;;;;;;;23.50;21.15;;;;;;;17.76;100.00;165213.19;4991242;28;20046;-59
2022/06/26 06:13:56;;;;;;;24.67;21.77;;;;;;;17.79;100.00;165218.63;4989395;28;20099;-59
2022/06/26 06:16:22;;;;;;;21.88;19.77;;;;;;;17.88;100.00;165244.38;4989456;28;20413;-59
2022/06/26 06:18:47;;;;;;;25.50;22.95;;;;;;;17.90;100.00;165249.81;4999893;28;20071;-59
2022/06/26 06:21:12;;;;;;;23.95;21.42;;;;;;;18.02;100.00;165279.72;5008195;28;20037;-59
2022/06/26 06:23:42;;;;;;;27.02;23.42;;;;;;;18.14;100.00;165310.84;5010149;28;20473;-58
2022/06/26 06:26:08;;;;;;;23.25;21.05;;;;;;;18.46;100.00;165394.94;5004774;28;20539;-59
2022/06/26 06:28:33;;;;;;;22.35;20.17;;;;;;;18.67;100.00;165451.88;4993262;28;20037;-59
2022/06/26 06:30:58;;;;;;;22.02;19.75;;;;;;;18.84;100.00;165496.63;5004770;28;20045;-59
2022/06/26 06:33:24;;;;;;;21.02;18.80;;;;;;;19.32;100.00;165622.84;5006198;28;20473;-59
2022/06/26 06:35:51;;;;;;;19.02;16.98;;;;;;;19.26;100.00;165606.56;4999162;28;20050;-59
2022/06/26 06:38:17;;;;;;;17.63;15.60;;;;;;;19.03;100.00;165545.53;5006724;28;20096;-59
2022/06/26 06:40:42;;;;;;;16.17;14.38;;;;;;;19.14;100.00;165575.34;5008846;28;20041;-59
2022/06/26 06:43:11;;;;;;;19.15;17.23;;;;;;;19.14;100.00;165575.34;5008203;28;20042;-58
2022/06/26 06:45:36;;;;;;;19.20;16.20;;;;;;;19.20;100.00;165590.28;5007505;28;20048;-59
2022/06/26 06:48:02;;;;;;;18.13;16.38;;;;;;;19.26;100.00;165605.22;4991276;28;20022;-59
2022/06/26 06:50:27;;;;;;;19.83;17.60;;;;;;;19.24;100.00;165599.78;4998281;28;20675;-59
2022/06/26 06:52:52;;;;;;;18.60;16.05;;;;;;;19.18;100.00;165584.84;5004346;28;20037;-59
2022/06/26 06:55:18;;;;;;;18.80;16.80;;;;;;;19.37;100.00;165633.72;4989393;28;20429;-59
2022/06/26 06:57:43;;;;;;;20.05;17.20;;;;;;;19.58;100.00;165690.69;4990251;28;20149;-59
2022/06/26 07:00:09;;;;;;;20.75;18.15;;;;;;;19.84;100.00;165758.63;4987903;28;20043;-58
2022/06/26 07:02:37;;;;;;;16.38;14.75;;;;;;;20.21;100.00;165856.31;4990910;28;20022;-59
2022/06/26 07:05:03;;;;;;;22.00;17.50;;;;;;;19.85;100.00;165759.94;5007877;28;20501;-59
2022/06/26 07:07:28;;;;;;;16.48;14.70;;;;;;;20.06;100.00;165815.59;5010227;28;20030;-59
2022/06/26 07:09:53;;;;;;;17.92;13.00;;;;;;;20.00;100.00;165799.28;5000670;28;20021;-59
2022/06/26 07:12:19;;;;;;;14.93;13.50;;;;;;;20.21;100.00;165854.94;5013595;28;20132;-59
2022/06/26 07:14:44;;;;;;;15.85;13.40;;;;;;;20.12;100.00;165831.88;4992276;28;20030;-59
2022/06/26 07:17:09;;;;;;;14.18;12.77;;;;;;;20.13;100.00;165834.59;5007035;28;20025;-59
2022/06/26 07:19:35;;;;;;;13.50;10.82;;;;;;;20.31;100.00;165880.72;5001400;28;20487;-59
2022/06/26 07:22:00;;;;;;;10.38;9.35;;;;;;;20.26;100.00;165869.88;5007700;28;20068;-60
2022/06/26 07:24:26;;;;;;;13.77;8.93;;;;;;;20.06;100.00;165816.94;4994509;28;20121;-59
2022/06/26 07:26:51;;;;;;;12.18;9.63;;;;;;;20.30;100.00;165879.38;4993895;28;20069;-59
2022/06/26 07:29:16;;;;;;;10.88;9.52;;;;;;;20.58;100.00;165954.06;5002146;28;20451;-59
2022/06/26 07:31:42;;;;;;;10.27;8.55;;;;;;;20.77;100.00;166002.97;5012084;28;20124;-59
2022/06/26 07:34:16;;;;;;;11.13;9.00;;;;;;;21.03;100.00;166072.22;5004927;28;20037;-59
2022/06/26 07:36:47;;;;;;;9.27;7.63;;;;;;;20.91;100.00;166040.97;4998725;28;20038;-59
2022/06/26 07:39:14;;;;;;;10.40;8.23;;;;;;;20.39;100.00;165902.44;4993896;28;20056;-59
2022/06/26 07:41:42;;;;;;;10.70;8.15;;;;;;;20.56;100.00;165947.22;4992499;28;20527;-59
2022/06/26 07:44:07;;;;;;;9.88;8.15;;;;;;;20.42;100.00;165910.63;5005595;28;20034;-59
2022/06/26 07:46:34;;;;;;;10.98;8.75;;;;;;;20.26;100.00;165869.88;5012207;28;20103;-59
2022/06/26 07:49:00;;;;;;;9.57;8.52;;;;;;;20.37;100.00;165897.00;4996849;28;20026;-59
2022/06/26 07:51:26;;;;;;;9.68;7.70;;;;;;;20.50;100.00;165932.34;4992007;28;20042;-59
2022/06/26 07:53:51;;;;;;;11.20;8.43;;;;;;;20.42;100.00;165911.94;4993720;28;20036;-59
2022/06/26 07:56:17;;;;;;;11.07;8.70;;;;;;;20.51;100.00;165935.06;4992164;28;20042;-59
2022/06/26 07:58:43;;;;;;;13.30;8.85;;;;;;;20.68;100.00;165978.47;4993954;28;20150;-59
2022/06/26 08:01:08;;;;;;;8.02;7.22;;;;;;;20.83;100.00;166017.91;4999492;28;20045;-59
2022/06/26 08:03:33;;;;;;;11.40;8.13;;;;;;;20.87;100.00;166030.13;5013115;28;20481;-59
2022/06/26 08:05:59;;;;;;;5.93;4.18;;;;;;;20.96;100.00;166053.22;5010899;28;20428;-59
2022/06/26 08:08:24;;;;;;;6.72;4.90;;;;;;;21.20;100.00;166115.69;5013215;28;20385;-59
2022/06/26 08:10:50;;;;;;;6.53;4.35;;;;;;;21.52;100.00;166201.22;5011430;28;20042;-59
2022/06/26 08:13:15;;;;;;;9.18;4.68;;;;;;;21.73;100.00;166255.59;5010324;28;20018;-59
2022/06/26 08:15:40;;;;;;;5.50;4.97;;;;;;;21.89;100.00;166296.34;5005193;28;20085;-59
2022/06/26 08:18:07;;;;;;;14.13;7.25;;;;;;;21.82;100.00;166280.06;4994717;28;20022;-59
2022/06/26 08:20:33;;;;;;;7.80;6.45;;;;;;;21.90;100.00;166299.09;4994458;28;20053;-59
2022/06/26 08:22:58;;;;;;;10.48;7.18;;;;;;;22.12;100.00;166357.47;4994991;28;20665;-58
2022/06/26 08:25:24;;;;;;;8.77;6.25;;;;;;;22.12;100.00;166358.84;5005074;28;20101;-58
2022/06/26 08:27:49;;;;;;;6.82;5.55;;;;;;;21.99;100.00;166323.53;4990925;28;20030;-59
2022/06/26 08:30:14;;;;;;;13.55;8.02;;;;;;;22.13;100.00;166361.59;4988940;28;20501;-58
2022/06/26 08:32:40;;;;;;;9.23;7.10;;;;;;;22.04;100.00;166337.13;5012617;28;20331;-59
2022/06/26 08:35:06;;;;;;;7.65;6.28;;;;;;;22.12;100.00;166357.47;5010429;28;20046;-59
2022/06/26 08:37:32;;;;;;;10.90;7.88;;;;;;;21.94;100.00;166311.31;5000352;28;20025;-59
2022/06/26 08:39:57;;;;;;;9.40;6.15;;;;;;;21.93;100.00;166307.25;5010564;28;20017;-59
2022/06/26 08:42:25;;;;;;;8.57;5.47;;;;;;;22.04;100.00;166337.13;5002155;28;20029;-59
2022/06/26 08:44:51;;;;;;;5.80;5.22;;;;;;;21.73;100.00;166255.59;5008674;28;20580;-62
2022/06/26 08:47:19;;;;;;;7.85;7.03;;;;;;;21.91;100.00;166301.81;5012026;28;20033;-59
2022/06/26 08:49:45;;;;;;;6.55;5.22;;;;;;;21.67;100.00;166239.31;5010039;28;20029;-59
2022/06/26 08:52:13;;;;;;;5.15;4.53;;;;;;;21.42;100.00;166174.03;4997195;28;20481;-59
2022/06/26 08:54:39;;;;;;;4.60;4.20;;;;;;;21.51;100.00;166197.16;5007445;28;20076;-58
2022/06/26 08:57:04;;;;;;;5.15;3.90;;;;;;;21.68;100.00;166243.38;5009919;28;20141;-58
2022/06/26 08:59:30;;;;;;;8.20;5.43;;;;;;;21.81;100.00;166277.34;5011197;28;20037;-58
2022/06/26 09:01:56;;;;;;;6.60;5.82;;;;;;;22.02;100.00;166333.06;5009994;28;20146;-59
2022/06/26 09:04:21;;;;;;;9.00;5.57;;;;;;;22.37;100.00;166424.09;4996467;28;20029;-58
2022/06/26 09:06:46;;;;;;;5.15;4.00;;;;;;;23.02;100.00;166595.38;5003283;28;20045;-58
2022/06/26 09:09:13;;;;;;;7.30;3.90;;;;;;;23.16;100.00;166630.69;5011735;28;20030;-58
2022/06/26 09:11:39;;;;;;;5.63;4.65;;;;;;;23.28;100.00;166663.34;4998477;28;20046;-58
2022/06/26 09:14:04;;;;;;;6.28;5.07;;;;;;;23.31;100.00;166670.19;4991927;28;20034;-58
2022/06/26 09:16:31;;;;;;;7.40;3.95;;;;;;;23.27;100.00;166662.03;4990933;28;20038;-59
2022/06/26 09:19:08;;;;;;;6.25;4.03;;;;;;;22.95;100.00;166576.34;4991794;28;20050;-59
2022/06/26 09:21:34;;;;;;;7.28;4.93;;;;;;;22.94;100.00;166573.63;4990849;28;20040;-59
2022/06/26 09:23:59;;;;;;;6.05;3.45;;;;;;;22.40;100.00;166432.28;4991727;28;20018;-59
2022/06/26 09:26:24;;;;;;;3.78;2.92;;;;;;;22.07;100.00;166343.91;5004163;28;20054;-59
2022/06/26 09:28:50;;;;;;;4.40;3.35;;;;;;;21.91;100.00;166303.16;5011575;28;20034;-58
2022/06/26 09:31:20;;;;;;;6.47;4.93;;;;;;;21.94;100.00;166309.94;5008741;28;20058;-59
2022/06/26 09:33:46;;;;;;;9.57;4.40;;;;;;;21.84;100.00;166284.13;5011447;28;20639;-59
2022/06/26 09:36:17;;;;;;;6.32;3.28;;;;;;;21.75;100.00;166261.03;5009946;28;20065;-59
2022/06/26 09:38:49;;;;;;;6.30;3.08;;;;;;;21.69;100.00;166244.75;5006464;28;20050;-60
2022/06/26 09:41:15;;;;;;;6.55;3.05;;;;;;;21.68;100.00;166242.03;4992839;28;20042;-60
2022/06/26 09:43:44;;;;;;;4.68;3.75;;;;;;;21.88;100.00;166295.03;4997859;28;20037;-60
2022/06/26 09:46:14;;;;;;;6.93;4.10;;;;;;;21.94;100.00;166309.94;5004303;28;20044;-60
2022/06/26 09:48:41;;;;;;;4.28;3.00;;;;;;;22.33;100.00;166414.59;4989971;28;20030;-60
2022/06/26 09:51:13;;;;;;;4.80;3.28;;;;;;;22.48;100.00;166452.69;4992008;28;20532;-61
2022/06/26 09:53:39;;;;;;;5.65;3.15;;;;;;;22.37;100.00;166424.09;5010774;28;20030;-60
2022/06/26 09:56:05;;;;;;;8.15;3.50;;;;;;;22.32;100.00;166410.47;5009145;28;20505;-60
2022/06/26 09:58:31;;;;;;;6.85;3.65;;;;;;;22.34;100.00;166415.91;4999849;28;20030;-60
2022/06/26 10:06:29;;;;;;;3.67;3.20;;;;;;;22.69;100.00;166508.34;4990167;28;20049;-60
2022/06/26 10:08:59;;;;;;;6.57;2.92;;;;;;;22.54;100.00;166467.59;4999124;28;20350;-60
2022/06/26 10:11:28;;;;;;;5.32;3.08;;;;;;;22.62;100.00;166489.34;5009261;28;20042;-60
2022/06/26 10:13:57;;;;;;;3.63;2.72;;;;;;;22.82;100.00;166543.69;4995199;28;20394;-59
2022/06/26 10:16:55;;;;;;;4.18;2.55;;;;;;;22.46;100.00;166448.56;4989604;28;20042;-59
2022/06/26 10:19:31;;;;;;;3.78;3.47;;;;;;;22.35;100.00;166419.97;4990839;28;20114;-59
2022/06/26 10:21:57;;;;;;;3.95;2.45;;;;;;;22.43;100.00;166440.44;4989913;28;20041;-59
2022/06/26 10:24:22;;;;;;;3.38;2.45;;;;;;;22.49;100.00;166456.75;5010784;28;20395;-59
2022/06/26 10:26:53;;;;;;;4.60;2.22;;;;;;;22.88;100.00;166558.66;4993716;28;20058;-59
2022/06/26 10:29:18;;;;;;;15.70;3.80;;;;;;;23.16;100.00;166630.69;4991140;28;20394;-60
2022/06/26 10:31:49;;;;;;;4.18;3.13;;;;;;;23.08;100.00;166611.66;4989608;28;20053;-59
2022/06/26 10:34:21;;;;;;;3.33;3.03;;;;;;;22.87;100.00;166555.94;4990483;28;20033;-59
2022/06/26 10:37:10;;;;;;;5.68;3.65;;;;;;;23.01;100.00;166592.63;4990551;28;20030;-59
2022/06/26 10:39:56;;;;;;;6.95;2.88;;;;;;;23.21;100.00;166644.31;4992736;28;20109;-59
2022/06/26 10:45:37;;;;;;;3.22;2.88;;;;;;;23.21;100.00;166644.31;5009023;28;20512;-59
2022/06/26 10:48:17;;;;;;;7.88;3.05;;;;;;;23.33;100.00;166676.97;5008508;28;20030;-59
2022/06/26 10:50:43;;;;;;;4.80;3.42;;;;;;;23.48;100.00;166716.38;5007357;28;20033;-59
2022/06/26 10:53:23;;;;;;;13.13;3.92;;;;;;;23.75;100.00;166788.44;5010496;28;20419;-60
2022/06/26 10:55:55;;;;;;;3.50;3.15;;;;;;;23.70;100.00;166774.88;5006039;28;20050;-59
2022/06/26 10:58:32;;;;;;;10.65;3.40;;;;;;;24.03;100.00;166860.59;4990677;28;20161;-59
2022/06/26 11:01:00;;;;;;;4.90;2.72;;;;;;;24.21;100.00;166908.19;4989058;28;20046;-59
2022/06/26 11:03:26;;;;;;;4.20;3.38;;;;;;;24.06;100.00;166870.09;4992728;28;20026;-59
2022/06/26 11:06:12;;;;;;;4.72;2.70;;;;;;;24.05;100.00;166866.03;5006906;28;20137;-61
2022/06/26 11:08:48;;;;;;;6.25;2.67;;;;;;;23.72;100.00;166780.28;5006557;28;20026;-60
2022/06/26 11:11:17;;;;;;;2.58;1.98;;;;;;;23.41;100.00;166698.75;4993426;28;20035;-60
2022/06/26 11:13:55;;;;;;;4.18;2.35;;;;;;;23.40;100.00;166694.63;5009013;28;20034;-61
2022/06/26 11:16:43;;;;;;;4.25;2.38;;;;;;;23.83;100.00;166808.81;5002160;28;20129;-60
2022/06/26 11:19:30;;;;;;;4.80;2.58;;;;;;;23.82;100.00;166804.75;5004345;28;20021;-60
2022/06/26 11:22:10;;;;;;;3.05;1.52;;;;;;;23.68;100.00;166768.09;4993701;28;20034;-60